createdAt,value
2022-12-08T00:02:22.084Z,3.08
2022-12-08T00:05:07.479Z,3.10
2022-12-08T00:07:52.786Z,3.11
2022-12-08T00:10:46.724Z,3.13
2022-12-08T00:13:05.619Z,3.10
2022-12-08T00:15:32.028Z,3.11
2022-12-08T00:17:58.398Z,3.07
2022-12-08T00:20:24.785Z,3.06
2022-12-08T00:22:51.173Z,3.04
2022-12-08T00:25:17.570Z,3.02
2022-12-08T00:27:44.017Z,2.97
2022-12-08T00:30:11.019Z,2.94
2022-12-08T00:32:38.141Z,2.90
2022-12-08T00:35:05.177Z,2.90
2022-12-08T00:37:31.831Z,2.89
2022-12-08T00:39:58.212Z,2.87
2022-12-08T00:42:24.607Z,2.84
2022-12-08T00:44:51.126Z,2.84
2022-12-08T00:47:22.129Z,2.83
2022-12-08T00:49:51.012Z,2.82
2022-12-08T00:52:17.440Z,2.83
2022-12-08T00:54:43.848Z,2.84
2022-12-08T00:57:10.278Z,2.88
2022-12-08T00:59:36.693Z,2.89
2022-12-08T01:02:03.195Z,2.91
2022-12-08T01:04:29.593Z,2.91
2022-12-08T01:06:56.297Z,2.93
2022-12-08T01:09:22.982Z,2.93
2022-12-08T01:11:49.491Z,2.92
2022-12-08T01:14:15.972Z,2.93
2022-12-08T01:16:43.518Z,2.94
2022-12-08T01:19:13.218Z,2.95
2022-12-08T01:21:40.953Z,2.96
2022-12-08T01:24:10.629Z,2.96
2022-12-08T01:26:37.037Z,2.96
2022-12-08T01:29:03.410Z,2.94
2022-12-08T01:31:29.821Z,2.93
2022-12-08T01:33:56.360Z,2.92
2022-12-08T01:36:25.806Z,2.92
2022-12-08T01:38:53.513Z,2.91
2022-12-08T01:41:22.911Z,2.84
2022-12-08T01:43:57.033Z,2.77
2022-12-08T01:46:24.578Z,2.69
2022-12-08T01:48:56.570Z,2.65
2022-12-08T01:51:23.116Z,2.61
2022-12-08T01:53:49.964Z,2.59
2022-12-08T01:56:24.114Z,2.56
2022-12-08T01:58:52.975Z,2.54
2022-12-08T02:01:19.434Z,2.50
2022-12-08T02:04:04.896Z,2.51
2022-12-08T02:06:36.205Z,2.45
2022-12-08T02:09:03.470Z,2.42
2022-12-08T02:11:29.948Z,2.40
2022-12-08T02:13:58.747Z,2.38
2022-12-08T02:16:40.755Z,2.37
2022-12-08T02:19:32.237Z,2.36
2022-12-08T02:22:00.878Z,2.37
2022-12-08T02:24:36.189Z,2.36
2022-12-08T02:27:29.684Z,2.34
2022-12-08T02:30:05.260Z,2.34
2022-12-08T02:33:06.112Z,2.35
2022-12-08T02:35:57.776Z,2.37
2022-12-08T02:38:38.277Z,2.39
2022-12-08T02:41:26.092Z,2.41
2022-12-08T02:44:12.615Z,2.42
2022-12-08T02:46:52.755Z,2.45
2022-12-08T02:49:19.125Z,2.49
2022-12-08T02:51:45.608Z,2.50
2022-12-08T02:54:13.037Z,2.52
2022-12-08T02:57:05.381Z,2.54
2022-12-08T02:59:40.895Z,2.56
2022-12-08T03:02:10.117Z,2.58
2022-12-08T03:05:21.890Z,2.60
2022-12-08T03:08:12.214Z,2.64
2022-12-08T03:11:05.007Z,2.67
2022-12-08T03:13:45.135Z,2.67
2022-12-08T03:16:15.818Z,2.69
2022-12-08T03:18:47.989Z,2.72
2022-12-08T03:21:17.481Z,2.73
2022-12-08T03:23:46.496Z,2.76
2022-12-08T03:26:24.886Z,2.77
2022-12-08T03:28:51.458Z,2.77
2022-12-08T03:31:19.749Z,2.78
2022-12-08T03:33:51.635Z,2.79
2022-12-08T03:36:19.492Z,2.82
2022-12-08T03:38:49.999Z,2.83
2022-12-08T03:41:19.424Z,2.84
2022-12-08T03:43:52.181Z,2.85
2022-12-08T03:48:46.263Z,2.86
2022-12-08T03:51:12.934Z,2.86
2022-12-08T03:53:39.473Z,2.83
2022-12-08T03:56:26.110Z,2.81
2022-12-08T03:58:54.218Z,2.79
2022-12-08T04:01:21.585Z,2.74
2022-12-08T04:03:48.513Z,2.73
2022-12-08T04:06:15.599Z,2.71
2022-12-08T04:08:42.387Z,2.70
2022-12-08T04:11:09.281Z,2.71
2022-12-08T04:13:38.061Z,2.69
2022-12-08T04:16:05.583Z,2.70
2022-12-08T04:18:33.030Z,2.70
2022-12-08T04:20:59.484Z,2.72
2022-12-08T04:23:25.957Z,2.73
2022-12-08T04:25:53.363Z,2.75
2022-12-08T04:28:20.057Z,2.74
2022-12-08T04:30:48.481Z,2.77
2022-12-08T04:33:14.918Z,2.77
2022-12-08T04:35:41.455Z,2.78
2022-12-08T04:38:07.830Z,2.76
2022-12-08T04:40:34.217Z,2.74
2022-12-08T04:43:00.603Z,2.71
2022-12-08T04:45:26.972Z,2.69
2022-12-08T04:47:53.354Z,2.66
2022-12-08T04:50:19.841Z,2.64
2022-12-08T04:52:46.250Z,2.66
2022-12-08T04:55:12.643Z,2.67
2022-12-08T04:57:39.112Z,2.67
2022-12-08T05:00:06.528Z,2.67
2022-12-08T05:02:33.201Z,2.68
2022-12-08T05:05:00.051Z,2.68
2022-12-08T05:07:26.677Z,2.68
2022-12-08T05:09:53.168Z,2.66
2022-12-08T05:12:19.594Z,2.67
2022-12-08T05:14:48.291Z,2.68
2022-12-08T05:17:16.651Z,2.65
2022-12-08T05:19:43.109Z,2.66
2022-12-08T05:22:09.553Z,2.68
2022-12-08T05:24:36.073Z,2.69
2022-12-08T05:27:02.549Z,2.70
2022-12-08T05:29:29.022Z,2.70
2022-12-08T05:31:55.578Z,2.73
2022-12-08T05:34:22.091Z,2.73
2022-12-08T05:36:48.501Z,2.75
2022-12-08T05:39:15.531Z,2.77
2022-12-08T05:41:42.106Z,2.78
2022-12-08T05:44:08.653Z,2.77
2022-12-08T05:46:35.287Z,2.78
2022-12-08T05:49:03.034Z,2.78
2022-12-08T05:51:29.707Z,2.79
2022-12-08T05:53:56.773Z,2.81
2022-12-08T05:56:23.477Z,2.83
2022-12-08T05:58:50.793Z,2.84
2022-12-08T06:01:26.183Z,2.81
2022-12-08T06:03:52.723Z,2.82
2022-12-08T06:06:19.954Z,2.83
2022-12-08T06:08:48.674Z,2.83
2022-12-08T06:11:22.801Z,2.84
2022-12-08T06:13:50.010Z,2.85
2022-12-08T06:16:16.601Z,2.86
2022-12-08T06:18:43.149Z,2.85
2022-12-08T06:21:12.448Z,2.85
2022-12-08T06:23:39.687Z,2.86
2022-12-08T06:26:14.402Z,2.86
2022-12-08T06:28:42.308Z,2.89
2022-12-08T06:31:16.270Z,2.90
2022-12-08T06:33:43.079Z,2.89
2022-12-08T06:36:11.850Z,2.88
2022-12-08T06:38:43.146Z,2.86
2022-12-08T06:41:11.277Z,2.85
2022-12-08T06:43:37.809Z,2.84
2022-12-08T06:46:07.775Z,2.85
2022-12-08T06:48:34.582Z,2.83
2022-12-08T06:51:09.154Z,2.81
2022-12-08T06:53:35.742Z,2.80
2022-12-08T06:56:02.681Z,2.79
2022-12-08T06:58:29.350Z,2.77
2022-12-08T07:00:55.870Z,2.73
2022-12-08T07:03:22.350Z,2.72
2022-12-08T07:05:49.061Z,2.70
2022-12-08T07:08:15.707Z,2.70
2022-12-08T07:10:42.186Z,2.68
2022-12-08T07:13:08.646Z,2.68
2022-12-08T07:15:35.027Z,2.65
2022-12-08T07:18:01.396Z,2.63
2022-12-08T07:20:28.103Z,2.61
2022-12-08T07:22:54.701Z,2.59
2022-12-08T07:25:21.650Z,2.56
2022-12-08T07:27:48.135Z,2.52
2022-12-08T07:30:15.050Z,2.46
2022-12-08T07:32:41.836Z,2.42
2022-12-08T07:35:08.844Z,2.39
2022-12-08T07:37:36.418Z,2.35
2022-12-08T07:40:04.636Z,2.29
2022-12-08T07:42:31.322Z,2.28
2022-12-08T07:44:57.718Z,2.24
2022-12-08T07:47:24.075Z,2.20
2022-12-08T07:49:50.444Z,2.15
2022-12-08T07:52:16.883Z,2.13
2022-12-08T07:54:43.345Z,2.11
2022-12-08T07:57:09.802Z,2.12
2022-12-08T07:59:36.223Z,2.12
2022-12-08T08:02:22.689Z,2.13
2022-12-08T08:04:52.203Z,2.14
2022-12-08T08:07:18.635Z,2.17
2022-12-08T08:09:45.774Z,2.18
2022-12-08T08:15:00.716Z,2.23
2022-12-08T08:17:27.902Z,2.25
2022-12-08T08:19:54.332Z,2.26
2022-12-08T08:22:20.772Z,2.25
2022-12-08T08:24:47.181Z,2.28
2022-12-08T08:27:13.953Z,2.29
2022-12-08T08:29:40.361Z,2.32
2022-12-08T08:32:06.720Z,2.34
2022-12-08T08:34:33.123Z,2.36
2022-12-08T08:36:59.659Z,2.37
2022-12-08T08:39:26.206Z,2.40
2022-12-08T08:41:52.785Z,2.41
2022-12-08T08:44:19.228Z,2.43
2022-12-08T08:46:45.703Z,2.45
2022-12-08T08:49:12.121Z,2.50
2022-12-08T08:51:38.652Z,2.51
2022-12-08T08:54:05.120Z,2.52
2022-12-08T08:56:31.690Z,2.53
2022-12-08T08:58:58.178Z,2.56
2022-12-08T09:01:27.414Z,2.57
2022-12-08T09:03:55.144Z,2.56
2022-12-08T09:06:22.426Z,2.57
2022-12-08T09:08:50.050Z,2.60
2022-12-08T09:11:18.665Z,2.63
2022-12-08T09:13:48.843Z,2.65
2022-12-08T09:16:15.595Z,2.66
2022-12-08T09:18:42.065Z,2.67
2022-12-08T09:21:13.190Z,2.70
2022-12-08T09:23:39.994Z,2.71
2022-12-08T09:26:06.935Z,2.74
2022-12-08T09:28:33.554Z,2.73
2022-12-08T09:31:00.194Z,2.75
2022-12-08T09:33:26.703Z,2.79
2022-12-08T09:35:53.471Z,2.83
2022-12-08T09:38:20.024Z,2.88
2022-12-08T09:40:52.492Z,2.87
2022-12-08T09:44:04.506Z,2.89
2022-12-08T09:46:34.282Z,2.90
2022-12-08T09:49:02.603Z,2.93
2022-12-08T09:51:38.534Z,2.97
2022-12-08T09:54:17.359Z,2.97
2022-12-08T09:56:43.960Z,2.97
2022-12-08T09:59:22.396Z,3.00
2022-12-08T10:01:49.125Z,3.03
2022-12-08T10:04:34.945Z,3.08
2022-12-08T10:07:27.425Z,3.16
2022-12-08T10:10:18.901Z,3.20
2022-12-08T10:13:06.690Z,3.20
2022-12-08T10:15:41.613Z,3.24
2022-12-08T10:18:23.057Z,3.29
2022-12-08T10:20:51.161Z,3.35
2022-12-08T10:23:33.199Z,3.42
2022-12-08T10:26:06.508Z,3.47
2022-12-08T10:28:37.678Z,3.50
2022-12-08T10:31:15.155Z,3.49
2022-12-08T10:33:41.573Z,3.46
2022-12-08T10:36:11.166Z,3.41
2022-12-08T10:38:39.634Z,3.37
2022-12-08T10:41:08.998Z,3.36
2022-12-08T10:43:38.444Z,3.33
2022-12-08T10:46:13.173Z,3.34
2022-12-08T10:49:03.066Z,3.34
2022-12-08T10:51:35.179Z,3.32
2022-12-08T10:54:01.913Z,3.33
2022-12-08T10:56:30.451Z,3.34
2022-12-08T10:59:17.279Z,3.34
2022-12-08T11:01:51.440Z,3.34
2022-12-08T11:04:36.479Z,3.36
2022-12-08T11:07:06.040Z,3.38
2022-12-08T11:09:37.682Z,3.41
2022-12-08T11:12:15.785Z,3.41
2022-12-08T11:14:42.097Z,3.44
2022-12-08T11:17:13.005Z,3.43
2022-12-08T11:19:41.904Z,3.45
2022-12-08T11:22:32.471Z,3.48
2022-12-08T11:25:20.833Z,3.51
2022-12-08T11:27:53.594Z,3.52
2022-12-08T11:30:27.270Z,3.48
2022-12-08T11:33:03.379Z,3.47
2022-12-08T11:35:37.470Z,3.52
2022-12-08T11:38:24.597Z,3.56
2022-12-08T11:40:55.836Z,3.57
2022-12-08T11:43:34.902Z,3.60
2022-12-08T11:46:14.068Z,3.62
2022-12-08T11:49:06.745Z,3.62
2022-12-08T11:51:38.530Z,3.59
2022-12-08T11:54:33.664Z,3.58
2022-12-08T11:57:03.649Z,3.57
2022-12-08T11:59:34.691Z,3.57
2022-12-08T12:02:03.831Z,3.59
2022-12-08T12:04:52.623Z,3.60
2022-12-08T12:07:30.970Z,3.62
2022-12-08T12:10:18.256Z,3.66
2022-12-08T12:13:02.596Z,3.68
2022-12-08T12:15:50.786Z,3.69
2022-12-08T12:18:47.685Z,3.70
2022-12-08T12:21:20.187Z,3.68
2022-12-08T12:23:53.682Z,3.67
2022-12-08T12:26:26.239Z,3.67
2022-12-08T12:28:57.796Z,3.68
2022-12-08T12:31:29.516Z,3.65
2022-12-08T12:34:08.517Z,3.63
2022-12-08T12:36:55.488Z,3.59
2022-12-08T12:39:31.869Z,3.56
2022-12-08T12:42:01.366Z,3.57
2022-12-08T12:44:27.709Z,3.57
2022-12-08T12:46:58.720Z,3.52
2022-12-08T12:49:40.595Z,3.49
2022-12-08T12:52:09.839Z,3.47
2022-12-08T12:54:36.343Z,3.46
2022-12-08T12:57:05.576Z,3.46
2022-12-08T12:59:34.951Z,3.46
2022-12-08T13:02:02.595Z,3.47
2022-12-08T13:04:37.414Z,3.48
2022-12-08T13:07:05.011Z,3.48
2022-12-08T13:09:39.657Z,3.47
2022-12-08T13:12:12.164Z,3.46
2022-12-08T13:14:47.488Z,3.48
2022-12-08T13:17:27.404Z,3.45
2022-12-08T13:19:57.699Z,3.43
2022-12-08T13:23:21.501Z,3.39
2022-12-08T13:25:51.187Z,3.38
2022-12-08T13:28:24.453Z,3.38
2022-12-08T13:31:02.076Z,3.38
2022-12-08T13:33:32.418Z,3.40
2022-12-08T13:36:31.140Z,3.42
2022-12-08T13:38:59.069Z,3.45
2022-12-08T13:41:43.244Z,3.44
2022-12-08T13:58:42.161Z,3.38
2022-12-08T14:01:23.394Z,3.41
2022-12-08T14:04:31.062Z,3.39
2022-12-08T14:06:45.921Z,3.42
2022-12-08T14:09:16.384Z,3.40
2022-12-08T14:11:47.877Z,3.38
2022-12-08T14:14:46.026Z,3.38
2022-12-08T14:17:14.041Z,3.37
2022-12-08T14:19:52.157Z,3.36
2022-12-08T14:22:18.920Z,3.34
2022-12-08T14:24:51.343Z,3.33
2022-12-08T14:27:26.860Z,3.27
2022-12-08T14:29:57.010Z,3.24
2022-12-08T14:32:59.848Z,3.19
2022-12-08T14:35:34.987Z,3.13
2022-12-08T14:38:12.228Z,3.09
2022-12-08T14:40:44.327Z,3.06
2022-12-08T14:43:10.766Z,3.03
2022-12-08T14:45:43.002Z,3.00
2022-12-08T14:48:30.819Z,2.97
2022-12-08T14:51:03.347Z,2.93
2022-12-08T14:53:53.006Z,2.92
2022-12-08T14:56:22.471Z,2.91
2022-12-08T14:58:51.227Z,2.90
2022-12-08T15:01:23.450Z,2.87
2022-12-08T15:03:51.567Z,2.83
2022-12-08T15:06:21.168Z,2.78
2022-12-08T15:08:58.682Z,2.76
2022-12-08T15:11:25.027Z,2.75
2022-12-08T15:13:54.418Z,2.74
2022-12-08T15:16:28.772Z,2.73
2022-12-08T15:19:21.417Z,2.71
2022-12-08T15:21:47.895Z,2.72
2022-12-08T15:24:15.481Z,2.72
2022-12-08T15:26:47.144Z,2.73
2022-12-08T15:29:22.912Z,2.74
2022-12-08T15:31:52.268Z,2.75
2022-12-08T15:34:20.189Z,2.75
2022-12-08T15:36:47.593Z,2.79
2022-12-08T15:39:33.615Z,2.82
2022-12-08T15:42:01.440Z,2.88
2022-12-08T15:44:29.158Z,2.91
2022-12-08T15:46:56.017Z,2.95
2022-12-08T15:49:23.903Z,2.98
2022-12-08T15:51:57.400Z,3.02
2022-12-08T15:54:31.373Z,3.05
2022-12-08T15:59:45.068Z,3.04
2022-12-08T16:02:16.709Z,3.02
2022-12-08T16:05:33.409Z,2.99
2022-12-08T16:07:37.906Z,2.97
2022-12-08T16:10:06.661Z,2.94
2022-12-08T16:16:00.674Z,2.83
2022-12-08T16:18:34.466Z,2.81
2022-12-08T16:21:41.753Z,2.80
2022-12-08T16:23:48.266Z,2.79
2022-12-08T16:26:54.540Z,2.77
2022-12-08T16:29:08.102Z,2.74
2022-12-08T16:31:35.244Z,2.72
2022-12-08T16:34:01.865Z,2.71
2022-12-08T16:36:28.288Z,2.71
2022-12-08T16:38:54.667Z,2.69
2022-12-08T16:41:39.931Z,2.67
2022-12-08T16:44:06.422Z,2.65
2022-12-08T16:46:33.247Z,2.64
2022-12-08T16:48:59.704Z,2.63
2022-12-08T16:51:27.318Z,2.62
2022-12-08T16:53:54.115Z,2.60
2022-12-08T16:56:22.264Z,2.56
2022-12-08T16:58:49.878Z,2.52
2022-12-08T17:01:18.333Z,2.48
2022-12-08T17:04:01.342Z,2.44
2022-12-08T17:06:32.629Z,2.39
2022-12-08T17:08:59.651Z,2.34
2022-12-08T17:11:28.389Z,2.29
2022-12-08T17:13:54.844Z,2.21
2022-12-08T17:16:21.878Z,2.14
2022-12-08T17:18:48.646Z,2.09
2022-12-08T17:21:17.446Z,2.04
2022-12-08T17:23:44.270Z,2.02
2022-12-08T17:26:10.975Z,1.99
2022-12-08T17:28:59.328Z,1.95
2022-12-08T17:31:29.415Z,1.90
2022-12-08T17:33:59.514Z,1.87
2022-12-08T17:36:25.989Z,1.84
2022-12-08T17:38:52.536Z,1.83
2022-12-08T17:41:18.968Z,1.80
2022-12-08T17:43:45.392Z,1.78
2022-12-08T17:46:17.037Z,1.77
2022-12-08T17:48:43.504Z,1.78
2022-12-08T17:51:10.490Z,1.79
2022-12-08T17:53:37.793Z,1.80
2022-12-08T17:56:04.403Z,1.81
2022-12-08T17:58:31.270Z,1.80
2022-12-08T18:00:57.695Z,1.80
2022-12-08T18:03:24.114Z,1.80
2022-12-08T18:05:51.033Z,1.77
2022-12-08T18:08:17.519Z,1.75
2022-12-08T18:10:44.133Z,1.71
2022-12-08T18:13:10.580Z,1.68
2022-12-08T18:15:39.309Z,1.63
2022-12-08T18:18:05.999Z,1.58
2022-12-08T18:20:32.476Z,1.53
2022-12-08T18:22:58.959Z,1.49
2022-12-08T18:25:25.541Z,1.42
2022-12-08T18:27:51.949Z,1.36
2022-12-08T18:30:18.673Z,1.31
2022-12-08T18:32:45.956Z,1.25
2022-12-08T18:35:13.350Z,1.19
2022-12-08T18:37:39.952Z,1.14
2022-12-08T18:40:07.201Z,1.09
2022-12-08T18:42:33.860Z,1.04
2022-12-08T18:45:04.434Z,1.00
2022-12-08T18:47:36.267Z,0.96
2022-12-08T18:50:04.585Z,0.93
2022-12-08T18:52:32.628Z,0.90
2022-12-08T18:55:07.684Z,0.88
2022-12-08T18:57:37.543Z,0.86
2022-12-08T19:00:06.143Z,0.84
2022-12-08T19:02:34.052Z,0.80
2022-12-08T19:05:01.234Z,0.76
2022-12-08T19:07:27.624Z,0.74
2022-12-08T19:09:54.556Z,0.71
2022-12-08T19:12:20.948Z,0.67
2022-12-08T19:14:47.438Z,0.64
2022-12-08T19:17:14.014Z,0.62
2022-12-08T19:19:40.420Z,0.59
2022-12-08T19:22:06.874Z,0.57
2022-12-08T19:24:34.818Z,0.54
2022-12-08T19:27:01.253Z,0.52
2022-12-08T19:29:27.641Z,0.50
2022-12-08T19:31:54.367Z,0.47
2022-12-08T19:34:21.172Z,0.45
2022-12-08T19:36:47.823Z,0.43
2022-12-08T19:39:38.863Z,0.41
2022-12-08T19:42:38.903Z,0.38
2022-12-08T19:45:12.115Z,0.36
2022-12-08T19:47:39.774Z,0.35
2022-12-08T19:50:27.124Z,0.34
2022-12-08T19:52:54.406Z,0.33
2022-12-08T19:55:21.064Z,0.33
2022-12-08T19:57:47.631Z,0.32
2022-12-08T20:00:14.823Z,0.31
2022-12-08T20:02:42.170Z,0.29
2022-12-08T20:05:13.756Z,0.26
2022-12-08T20:07:40.656Z,0.20
2022-12-08T20:10:15.578Z,0.14
2022-12-08T20:12:42.080Z,0.08
2022-12-08T20:15:10.160Z,0.02
2022-12-08T20:17:37.876Z,-0.07
2022-12-08T20:20:07.573Z,-0.14
2022-12-08T20:22:34.707Z,-0.20
2022-12-08T20:25:01.310Z,-0.26
2022-12-08T20:27:29.111Z,-0.31
2022-12-08T20:29:55.622Z,-0.37
2022-12-08T20:32:22.123Z,-0.44
2022-12-08T20:34:48.534Z,-0.49
2022-12-08T20:37:14.999Z,-0.55
2022-12-08T20:39:41.434Z,-0.59
2022-12-08T20:42:12.843Z,-0.63
2022-12-08T20:44:43.397Z,-0.65
2022-12-08T20:47:11.148Z,-0.69
2022-12-08T20:49:37.860Z,-0.71
2022-12-08T20:52:04.841Z,-0.75
2022-12-08T20:54:31.364Z,-0.77
2022-12-08T20:56:57.848Z,-0.77
2022-12-08T20:59:26.352Z,-0.77
2022-12-08T21:01:54.007Z,-0.76
2022-12-08T21:04:21.513Z,-0.74
2022-12-08T21:06:49.045Z,-0.74
2022-12-08T21:09:15.842Z,-0.73
2022-12-08T21:11:42.479Z,-0.72
2022-12-08T21:14:08.897Z,-0.69
2022-12-08T21:16:36.046Z,-0.66
2022-12-08T21:19:02.683Z,-0.64
2022-12-08T21:21:29.370Z,-0.61
2022-12-08T21:23:55.893Z,-0.59
2022-12-08T21:26:26.121Z,-0.58
2022-12-08T21:28:57.891Z,-0.56
2022-12-08T21:31:26.628Z,-0.56
2022-12-08T21:33:55.122Z,-0.57
2022-12-08T21:36:21.775Z,-0.58
2022-12-08T21:38:48.997Z,-0.62
2022-12-08T21:41:39.068Z,-0.67
2022-12-08T21:44:07.338Z,-0.71
2022-12-08T21:46:34.150Z,-0.77
2022-12-08T21:49:01.212Z,-0.83
2022-12-08T21:51:28.069Z,-0.85
2022-12-08T21:53:54.822Z,-0.87
2022-12-08T21:56:21.691Z,-0.91
2022-12-08T21:58:48.256Z,-0.97
2022-12-08T22:01:14.964Z,-1.04
2022-12-08T22:03:41.962Z,-1.09
2022-12-08T22:06:11.258Z,-1.15
2022-12-08T22:08:38.039Z,-1.21
2022-12-08T22:11:05.801Z,-1.25
2022-12-08T22:13:38.389Z,-1.30
2022-12-08T22:16:07.602Z,-1.36
2022-12-08T22:18:34.763Z,-1.39
2022-12-08T22:21:02.570Z,-1.43
2022-12-08T22:23:29.280Z,-1.46
2022-12-08T22:25:58.485Z,-1.48
2022-12-08T22:28:33.095Z,-1.51
2022-12-08T22:31:00.378Z,-1.53
2022-12-08T22:33:29.769Z,-1.55
2022-12-08T22:36:08.089Z,-1.58
2022-12-08T22:38:36.446Z,-1.60
2022-12-08T22:41:05.217Z,-1.63
2022-12-08T22:43:33.185Z,-1.68
2022-12-08T22:46:00.004Z,-1.70
2022-12-08T22:48:26.494Z,-1.76
2022-12-08T22:50:59.726Z,-1.77
2022-12-08T22:53:26.387Z,-1.77
2022-12-08T22:55:52.908Z,-1.77
2022-12-08T22:58:19.910Z,-1.79
2022-12-08T23:00:46.636Z,-1.80
2022-12-08T23:03:13.123Z,-1.81
2022-12-08T23:05:39.973Z,-1.82
2022-12-08T23:08:08.346Z,-1.82
2022-12-08T23:10:35.868Z,-1.83
2022-12-08T23:13:04.224Z,-1.84
2022-12-08T23:15:31.773Z,-1.83
2022-12-08T23:17:58.211Z,-1.87
2022-12-08T23:20:24.909Z,-1.89
2022-12-08T23:22:51.702Z,-1.91
2022-12-08T23:25:18.570Z,-1.94
2022-12-08T23:27:46.198Z,-1.95
2022-12-08T23:30:13.716Z,-1.96
2022-12-08T23:32:40.471Z,-1.98
2022-12-08T23:35:07.986Z,-2.00
2022-12-08T23:37:34.912Z,-2.01
2022-12-08T23:40:01.544Z,-2.02
2022-12-08T23:42:30.447Z,-2.02
2022-12-08T23:44:57.059Z,-2.05
2022-12-08T23:47:23.677Z,-2.09
2022-12-08T23:49:50.381Z,-2.11
2022-12-08T23:52:17.047Z,-2.14
2022-12-08T23:54:44.861Z,-2.16
2022-12-08T23:57:11.676Z,-2.17
2022-12-08T23:59:38.213Z,-2.18
